Time;durP1;ratioP1;P1;durP2;ratioP2;P2;SDS_P1;SDS_P2;PMS_P1;PMS_P2;Temp;Humidity;BMP_temperature;BMP_pressure;BME280_temperature;BME280_humidity;BME280_pressure;Samples;Min_cycle;Max_cycle;Signal;HPM_P1;HPM_P2
2023/09/24 00:02:13;;;;;;;0.40;0.40;;;;;;;23.41;55.29;100786.50;5009576;28;20973;-77
2023/09/24 00:04:44;;;;;;;0.30;0.30;;;;;;;23.51;54.99;100788.50;5010735;28;20467;-75
2023/09/24 00:07:14;;;;;;;0.40;0.40;;;;;;;23.44;55.18;100786.81;5009132;28;20384;-77
2023/09/24 00:09:43;;;;;;;0.27;0.27;;;;;;;23.47;55.02;100786.28;5025714;28;20918;-75
2023/09/24 00:12:13;;;;;;;0.20;0.20;;;;;;;23.60;54.73;100786.97;5010856;28;20396;-77
2023/09/24 00:14:40;;;;;;;0.30;0.30;;;;;;;23.45;55.07;100788.44;5009357;28;20470;-77
2023/09/24 00:17:10;;;;;;;0.30;0.30;;;;;;;23.36;55.38;100786.44;5010696;28;20395;-79
2023/09/24 00:19:35;;;;;;;0.20;0.20;;;;;;;23.28;55.28;100793.09;5010594;28;20392;-76
2023/09/24 00:22:02;;;;;;;0.80;0.80;;;;;;;23.26;55.34;100796.09;5010468;28;20388;-78
2023/09/24 00:24:27;;;;;;;0.50;0.40;;;;;;;23.12;55.95;100789.41;5009919;28;20383;-77
2023/09/24 00:26:53;;;;;;;0.50;0.30;;;;;;;23.06;56.13;100796.63;5010142;28;20419;-78
2023/09/24 00:29:18;;;;;;;0.60;0.55;;;;;;;23.00;56.03;100791.41;5010120;28;20383;-78
2023/09/24 00:31:45;;;;;;;1.40;0.30;;;;;;;23.03;56.08;100801.69;5010395;28;20403;-76
2023/09/24 00:34:11;;;;;;;0.20;0.20;;;;;;;23.07;55.84;100797.47;5009216;28;20477;-78
2023/09/24 00:36:37;;;;;;;0.30;0.20;;;;;;;23.05;55.84;100784.19;5009787;28;20442;-77
2023/09/24 00:39:02;;;;;;;0.30;0.30;;;;;;;23.06;56.01;100788.50;5010329;28;20384;-75
2023/09/24 00:41:28;;;;;;;0.30;0.30;;;;;;;22.98;56.23;100807.88;5025016;28;20395;-78
2023/09/24 00:43:54;;;;;;;0.55;0.47;;;;;;;22.95;56.16;100807.53;5008964;28;20388;-77
2023/09/24 00:46:25;;;;;;;0.75;0.55;;;;;;;22.93;56.45;100809.69;5007825;28;20527;-77
2023/09/24 00:48:51;;;;;;;0.38;0.30;;;;;;;22.88;56.48;100805.00;5008996;28;20395;-77
2023/09/24 00:51:28;;;;;;;0.30;0.20;;;;;;;22.87;56.45;100806.91;5025533;28;20388;-77
2023/09/24 00:53:54;;;;;;;0.43;0.30;;;;;;;22.86;56.49;100796.34;5008853;28;20415;-77
2023/09/24 00:56:21;;;;;;;0.80;0.80;;;;;;;22.82;56.64;100792.50;5009054;28;20391;-75
2023/09/24 00:58:51;;;;;;;0.22;0.20;;;;;;;22.86;56.15;100796.34;5025207;28;20392;-77
2023/09/24 01:01:17;;;;;;;0.70;0.50;;;;;;;22.81;56.37;100798.97;5009277;28;20905;-76
2023/09/24 01:03:48;;;;;;;0.45;0.35;;;;;;;22.69;56.85;100796.41;5007484;28;20497;-77
2023/09/24 01:06:14;;;;;;;0.43;0.30;;;;;;;22.58;57.36;100792.72;5009898;28;20404;-77
2023/09/24 01:08:45;;;;;;;0.40;0.40;;;;;;;22.50;57.68;100796.66;5010208;28;20391;-77
2023/09/24 01:11:12;;;;;;;0.45;0.30;;;;;;;22.48;57.82;100793.38;5008684;28;20475;-78
2023/09/24 01:13:43;;;;;;;0.20;0.20;;;;;;;22.51;57.42;100790.19;5010340;28;20395;-75
2023/09/24 01:16:10;;;;;;;0.40;0.40;;;;;;;22.46;57.84;100792.81;4992482;28;20419;-77
2023/09/24 01:18:39;;;;;;;0.30;0.30;;;;;;;22.40;57.78;100783.00;5010055;28;20399;-77
2023/09/24 01:21:16;;;;;;;0.30;0.20;;;;;;;22.37;57.89;100782.69;5009996;28;20791;-77
2023/09/24 01:23:45;;;;;;;1.00;0.90;;;;;;;22.35;57.85;100784.81;5010122;28;20400;-77
2023/09/24 01:26:14;;;;;;;0.20;0.20;;;;;;;22.36;58.00;100778.34;5024931;28;20419;-77
2023/09/24 01:28:43;;;;;;;0.40;0.30;;;;;;;22.36;57.77;100783.72;5009683;28;20910;-75
2023/09/24 01:31:08;;;;;;;0.35;0.30;;;;;;;22.46;57.37;100781.19;5008588;28;20396;-77
2023/09/24 01:33:39;;;;;;;0.40;0.40;;;;;;;22.42;57.50;100786.28;5008259;28;20394;-78
2023/09/24 01:36:08;;;;;;;0.60;0.50;;;;;;;22.30;57.61;100780.16;5009382;28;20850;-76
2023/09/24 01:38:36;;;;;;;0.50;0.30;;;;;;;22.31;57.54;100806.09;4992378;28;20403;-76
2023/09/24 01:41:04;;;;;;;0.45;0.30;;;;;;;22.26;57.41;100801.41;5008336;28;20392;-77
2023/09/24 01:43:31;;;;;;;0.30;0.30;;;;;;;22.31;57.36;100806.91;5009692;28;20388;-77
2023/09/24 01:45:57;;;;;;;0.25;0.20;;;;;;;22.32;57.28;100815.81;4992104;28;20474;-77
2023/09/24 01:48:23;;;;;;;0.30;0.23;;;;;;;22.23;57.87;100819.97;5011296;28;20392;-77
2023/09/24 01:50:52;;;;;;;0.50;0.35;;;;;;;22.05;58.11;100826.41;5011820;28;20395;-78
2023/09/24 01:53:18;;;;;;;0.73;0.40;;;;;;;21.96;58.42;100842.19;5013410;28;20384;-77
2023/09/24 01:55:44;;;;;;;0.57;0.50;;;;;;;21.97;58.46;100865.44;5013461;28;20759;-76
2023/09/24 01:58:10;;;;;;;0.50;0.40;;;;;;;21.89;58.62;100868.50;5012933;28;20822;-76
2023/09/24 02:00:37;;;;;;;0.40;0.40;;;;;;;21.89;58.73;100882.00;5011887;28;20742;-76
2023/09/24 02:03:07;;;;;;;0.40;0.40;;;;;;;21.74;59.27;100882.53;5011868;28;20486;-76
2023/09/24 02:05:39;;;;;;;0.40;0.35;;;;;;;21.69;59.07;100891.34;5013268;28;20411;-76
2023/09/24 02:08:11;;;;;;;0.50;0.35;;;;;;;21.64;59.41;100888.53;4996461;28;20392;-77
2023/09/24 02:10:40;;;;;;;4.13;0.90;;;;;;;21.59;59.71;100896.53;5012923;28;20414;-78
2023/09/24 02:13:07;;;;;;;0.20;0.20;;;;;;;21.46;60.13;100889.50;5049818;28;20381;-77
2023/09/24 02:15:34;;;;;;;0.30;0.30;;;;;;;21.49;60.12;100888.22;5033316;28;20973;-76
2023/09/24 02:18:04;;;;;;;0.98;0.50;;;;;;;21.48;59.92;100900.91;5049599;28;20485;-76
2023/09/24 02:20:32;;;;;;;0.70;0.50;;;;;;;21.61;59.79;100898.97;5033220;28;20476;-77
2023/09/24 02:23:01;;;;;;;0.35;0.28;;;;;;;21.44;59.91;100897.00;5049071;28;20452;-79
2023/09/24 02:25:30;;;;;;;0.55;0.40;;;;;;;21.42;60.20;100901.81;5047679;28;20496;-77
2023/09/24 02:28:01;;;;;;;1.13;0.60;;;;;;;21.45;60.28;100906.78;5032008;28;21031;-75
2023/09/24 02:30:29;;;;;;;0.43;0.30;;;;;;;21.44;60.28;100926.66;5048714;28;20993;-77
2023/09/24 02:32:59;;;;;;;0.40;0.30;;;;;;;21.47;60.01;100918.13;5049210;28;20399;-75
2023/09/24 02:35:25;;;;;;;1.75;0.85;;;;;;;21.25;60.51;100923.31;5049391;28;20384;-77
2023/09/24 02:37:52;;;;;;;0.60;0.50;;;;;;;21.35;60.39;100907.31;5049464;28;21037;-77
2023/09/24 02:40:23;;;;;;;0.40;0.32;;;;;;;21.53;59.96;100919.06;5049286;28;20416;-77
2023/09/24 02:43:11;;;;;;;0.43;0.40;;;;;;;21.55;59.83;100917.78;5049308;28;20961;-77
2023/09/24 02:45:40;;;;;;;0.40;0.40;;;;;;;21.61;59.44;100921.41;5009514;28;20411;-78
2023/09/24 02:48:06;;;;;;;1.60;1.50;;;;;;;21.62;59.38;100927.59;5012401;28;20403;-76
2023/09/24 02:50:32;;;;;;;0.50;0.40;;;;;;;21.70;59.04;100927.25;5035537;28;20402;-82
2023/09/24 02:52:59;;;;;;;0.60;0.60;;;;;;;21.75;59.08;100919.22;5028694;28;20899;-77
2023/09/24 02:55:28;;;;;;;0.17;0.17;;;;;;;21.82;58.68;100902.91;5027874;28;20452;-75
2023/09/24 02:57:58;;;;;;;0.20;0.20;;;;;;;21.73;58.95;100894.38;5027531;28;20760;-78
2023/09/24 03:00:36;;;;;;;0.30;0.30;;;;;;;21.71;58.79;100900.00;5028743;28;20378;-77
2023/09/24 03:03:05;;;;;;;0.30;0.25;;;;;;;21.81;58.60;100896.69;5043792;28;20503;-78
2023/09/24 03:05:33;;;;;;;1.05;0.65;;;;;;;21.88;58.33;100889.28;5028323;28;20820;-78
2023/09/24 03:08:03;;;;;;;0.60;0.50;;;;;;;21.85;58.29;100887.06;5024776;28;20387;-80
2023/09/24 03:10:33;;;;;;;0.50;0.40;;;;;;;21.91;58.21;100896.91;5026900;28;20417;-77
2023/09/24 03:13:04;;;;;;;0.30;0.30;;;;;;;21.88;58.06;100897.38;5026316;28;20386;-78
2023/09/24 03:15:30;;;;;;;0.53;0.53;;;;;;;21.88;58.10;100894.69;5028101;28;20457;-77
2023/09/24 03:17:58;;;;;;;0.20;0.20;;;;;;;21.96;58.00;100891.56;5027031;28;20410;-77
2023/09/24 03:20:24;;;;;;;2.30;1.40;;;;;;;21.94;57.65;100880.22;5027082;28;20394;-77
2023/09/24 03:23:08;;;;;;;0.30;0.30;;;;;;;21.91;57.96;100872.63;5026993;28;20418;-77
2023/09/24 03:25:39;;;;;;;0.40;0.30;;;;;;;21.95;57.65;100867.56;5027087;28;20421;-78
2023/09/24 03:28:05;;;;;;;0.38;0.30;;;;;;;21.93;57.65;100883.13;5028633;28;20467;-78
2023/09/24 03:30:31;;;;;;;0.38;0.32;;;;;;;21.91;57.55;100886.09;5028378;28;20386;-78
2023/09/24 03:32:58;;;;;;;0.40;0.30;;;;;;;21.93;57.44;100905.56;5043295;28;20844;-78
2023/09/24 03:35:26;;;;;;;0.30;0.30;;;;;;;21.99;57.41;100914.59;5026595;28;20414;-79
2023/09/24 03:37:54;;;;;;;0.35;0.35;;;;;;;21.95;57.20;100925.03;5028703;28;20901;-78
2023/09/24 03:40:21;;;;;;;1.90;1.20;;;;;;;21.89;57.57;100930.56;5010503;28;20398;-79
2023/09/24 03:42:49;;;;;;;0.20;0.20;;;;;;;21.83;57.58;100942.34;5017283;28;20405;-80
2023/09/24 03:45:17;;;;;;;0.50;0.50;;;;;;;21.74;57.74;100934.59;5019927;28;20414;-79
2023/09/24 03:47:43;;;;;;;0.30;0.30;;;;;;;21.58;57.81;100921.88;5027919;28;20477;-78
2023/09/24 03:50:13;;;;;;;0.32;0.32;;;;;;;21.46;58.51;100921.88;5011386;28;21288;-77
2023/09/24 03:52:52;;;;;;;0.60;0.30;;;;;;;21.57;58.05;100921.06;5010208;28;20439;-78
2023/09/24 03:55:19;;;;;;;0.30;0.30;;;;;;;21.47;58.46;100923.53;5027761;28;20917;-77
2023/09/24 03:57:47;;;;;;;6.40;1.80;;;;;;;21.48;58.18;100916.25;5028054;28;20477;-78
2023/09/24 04:00:18;;;;;;;1.08;0.65;;;;;;;21.44;58.35;100929.34;5010590;28;20388;-77
2023/09/24 04:02:48;;;;;;;0.40;0.35;;;;;;;21.46;58.42;100943.44;5028931;28;20390;-77
2023/09/24 04:05:17;;;;;;;0.30;0.30;;;;;;;21.49;58.30;100936.78;5013266;28;20419;-78
2023/09/24 04:07:49;;;;;;;0.50;0.38;;;;;;;21.44;58.16;100925.84;5005816;28;20384;-78
2023/09/24 04:10:16;;;;;;;0.40;0.40;;;;;;;21.40;58.26;100922.81;5009391;28;20457;-78
2023/09/24 04:12:46;;;;;;;0.20;0.20;;;;;;;21.29;58.79;100926.34;5011194;28;20758;-78
2023/09/24 04:15:12;;;;;;;0.40;0.30;;;;;;;21.31;58.63;100926.94;5027681;28;20720;-79
2023/09/24 04:17:41;;;;;;;0.22;0.22;;;;;;;21.22;58.83;100931.84;5042601;28;20457;-77
2023/09/24 04:20:08;;;;;;;0.40;0.37;;;;;;;21.26;58.72;100924.91;5043048;28;20386;-79
2023/09/24 04:22:34;;;;;;;0.20;0.20;;;;;;;21.41;58.39;100942.50;5028569;28;20466;-77
2023/09/24 04:24:59;;;;;;;0.22;0.20;;;;;;;21.25;58.71;100935.94;5030962;28;20493;-77
2023/09/24 04:27:26;;;;;;;0.20;0.20;;;;;;;21.21;58.72;100935.59;5030392;28;20452;-75
2023/09/24 04:29:53;;;;;;;0.40;0.40;;;;;;;21.15;58.94;100936.53;5029839;28;20428;-74
2023/09/24 04:32:20;;;;;;;0.30;0.30;;;;;;;21.12;59.07;100940.53;5028997;28;20378;-76
2023/09/24 04:34:46;;;;;;;0.38;0.38;;;;;;;21.21;58.77;100940.97;5030169;28;20751;-78
2023/09/24 04:37:16;;;;;;;0.20;0.20;;;;;;;21.17;58.87;100937.13;5029821;28;20397;-78
2023/09/24 04:39:44;;;;;;;0.28;0.28;;;;;;;21.12;58.89;100945.09;5045148;28;20414;-77
2023/09/24 04:42:11;;;;;;;0.50;0.50;;;;;;;21.12;58.84;100945.09;5028420;28;21148;-78
2023/09/24 04:44:40;;;;;;;0.45;0.45;;;;;;;21.06;59.06;100943.34;5047069;28;20389;-79
2023/09/24 04:47:05;;;;;;;0.90;0.90;;;;;;;21.00;59.24;100942.41;5047344;28;20450;-78
2023/09/24 04:49:35;;;;;;;0.43;0.40;;;;;;;21.07;59.04;100942.28;5047664;28;20392;-78
2023/09/24 04:52:03;;;;;;;0.90;0.75;;;;;;;21.05;58.93;100939.84;5047591;28;20420;-77
2023/09/24 04:54:32;;;;;;;0.35;0.35;;;;;;;21.03;59.17;100939.25;5030484;28;20377;-78
2023/09/24 04:56:57;;;;;;;0.20;0.20;;;;;;;21.13;58.91;100936.78;5047320;28;20403;-78
2023/09/24 04:59:23;;;;;;;0.40;0.40;;;;;;;21.11;59.04;100951.56;5030426;28;20408;-77
2023/09/24 05:01:51;;;;;;;2.00;0.90;;;;;;;21.14;58.83;100943.81;5045267;28;20411;-76
2023/09/24 05:04:21;;;;;;;0.60;0.40;;;;;;;21.29;58.37;100946.03;5047577;28;20388;-78
2023/09/24 05:06:47;;;;;;;0.52;0.52;;;;;;;21.32;58.17;100945.56;5047557;28;20416;-77
2023/09/24 05:09:13;;;;;;;0.27;0.27;;;;;;;21.24;58.44;100945.91;5047145;28;20403;-75
2023/09/24 05:11:39;;;;;;;0.70;0.60;;;;;;;21.20;58.52;100958.22;5046710;28;20392;-76
2023/09/24 05:14:04;;;;;;;0.30;0.20;;;;;;;21.14;58.67;100960.00;5046972;28;20813;-76
2023/09/24 05:16:30;;;;;;;0.60;0.60;;;;;;;21.12;58.81;100966.66;5031714;28;20777;-74
2023/09/24 05:19:01;;;;;;;0.68;0.63;;;;;;;21.17;58.68;100966.78;5029247;28;20457;-75
2023/09/24 05:21:28;;;;;;;0.45;0.40;;;;;;;21.41;58.43;100966.75;5029035;28;20387;-77
2023/09/24 05:23:54;;;;;;;0.30;0.30;;;;;;;21.35;58.04;100950.47;5031245;28;20403;-76
2023/09/24 05:26:20;;;;;;;0.35;0.35;;;;;;;21.51;57.97;100956.25;5032023;28;20467;-77
2023/09/24 05:28:48;;;;;;;0.30;0.30;;;;;;;21.37;58.07;100961.88;5032025;28;20402;-76
2023/09/24 05:31:16;;;;;;;0.47;0.47;;;;;;;21.32;58.13;100960.91;5032056;28;20405;-75
2023/09/24 05:33:44;;;;;;;0.28;0.28;;;;;;;21.20;58.36;100964.44;5048306;28;20892;-76
2023/09/24 05:36:13;;;;;;;1.50;0.70;;;;;;;21.24;58.16;100962.09;5033404;28;20536;-76
2023/09/24 05:38:42;;;;;;;0.20;0.20;;;;;;;21.46;57.76;100959.63;5033380;28;20390;-76
2023/09/24 05:41:08;;;;;;;0.70;0.70;;;;;;;21.44;57.72;100963.59;5032385;28;20405;-76
2023/09/24 05:43:35;;;;;;;0.38;0.30;;;;;;;21.49;57.61;100961.88;5031537;28;20777;-78
2023/09/24 05:46:10;;;;;;;0.22;0.20;;;;;;;21.62;57.31;100951.88;5032981;28;20409;-77
2023/09/24 05:48:40;;;;;;;0.60;0.40;;;;;;;21.57;57.40;100969.63;5031368;28;20441;-78
2023/09/24 05:51:07;;;;;;;0.52;0.30;;;;;;;21.69;57.06;100980.38;5031600;28;20386;-76
2023/09/24 05:53:36;;;;;;;0.90;0.80;;;;;;;21.72;57.07;100981.78;5030529;28;20402;-77
2023/09/24 05:56:03;;;;;;;0.50;0.40;;;;;;;21.88;56.81;100982.94;5030514;28;20413;-77
2023/09/24 05:58:29;;;;;;;0.30;0.20;;;;;;;21.91;56.69;100991.38;5030658;28;20406;-76
2023/09/24 06:00:58;;;;;;;0.50;0.30;;;;;;;21.82;56.94;100983.88;5030381;28;20382;-77
2023/09/24 06:03:24;;;;;;;0.28;0.20;;;;;;;21.82;56.76;100975.78;5032519;28;20382;-76
2023/09/24 06:05:49;;;;;;;0.20;0.20;;;;;;;22.10;56.39;100964.19;5047970;28;20413;-76
2023/09/24 06:08:15;;;;;;;0.43;0.30;;;;;;;22.06;56.23;100974.66;5031491;28;20457;-76
2023/09/24 06:10:48;;;;;;;0.43;0.40;;;;;;;22.03;56.27;100977.81;5032624;28;20441;-77
2023/09/24 06:13:15;;;;;;;0.47;0.47;;;;;;;22.25;56.00;100986.06;5032634;28;20386;-78
2023/09/24 06:15:46;;;;;;;0.20;0.20;;;;;;;22.28;55.63;100984.81;5047521;28;20711;-77
2023/09/24 06:18:12;;;;;;;0.30;0.30;;;;;;;22.21;55.48;100989.50;5031323;28;20392;-77
2023/09/24 06:20:43;;;;;;;0.50;0.50;;;;;;;22.28;55.67;100984.81;5032419;28;20410;-76
2023/09/24 06:23:10;;;;;;;0.43;0.43;;;;;;;22.47;55.49;100983.56;5032607;28;20378;-77
2023/09/24 06:25:37;;;;;;;0.45;0.43;;;;;;;22.40;54.89;100979.34;5032479;28;20406;-76
2023/09/24 06:28:09;;;;;;;0.30;0.30;;;;;;;22.38;55.48;100974.19;5032624;28;20421;-77
2023/09/24 06:30:36;;;;;;;0.38;0.35;;;;;;;22.53;55.06;100976.34;5031123;28;20398;-77
2023/09/24 06:33:04;;;;;;;1.27;0.70;;;;;;;22.59;54.91;100994.28;5026882;28;20388;-78
2023/09/24 06:35:30;;;;;;;0.50;0.40;;;;;;;22.73;54.11;100996.69;5032085;22;20849;-78
2023/09/24 06:37:55;;;;;;;0.85;0.60;;;;;;;22.63;54.33;100998.13;5028544;28;21072;-77
2023/09/24 06:40:21;;;;;;;0.53;0.40;;;;;;;22.97;54.41;101008.97;5029127;28;20406;-78
2023/09/24 06:42:47;;;;;;;0.77;0.50;;;;;;;23.24;53.36;101025.38;5029396;28;20393;-78
2023/09/24 06:45:13;;;;;;;0.55;0.47;;;;;;;23.39;53.57;101021.28;5027487;28;20418;-78
2023/09/24 06:47:41;;;;;;;0.57;0.40;;;;;;;23.52;53.07;101017.44;5027720;28;20395;-77
2023/09/24 06:50:11;;;;;;;0.80;0.45;;;;;;;23.62;52.86;101021.09;5027369;28;20379;-77
2023/09/24 06:52:39;;;;;;;0.68;0.50;;;;;;;23.67;52.49;101004.91;5027394;28;20386;-77
2023/09/24 06:55:11;;;;;;;0.60;0.60;;;;;;;23.70;52.31;101000.88;5026813;28;20390;-77
2023/09/24 06:57:36;;;;;;;0.32;0.30;;;;;;;23.76;52.35;100999.88;5028424;28;20406;-77
2023/09/24 07:00:04;;;;;;;0.82;0.50;;;;;;;23.96;52.30;101002.03;5029397;28;20481;-78
2023/09/24 07:02:30;;;;;;;0.63;0.40;;;;;;;24.14;51.34;101002.78;5030826;28;20382;-78
2023/09/24 07:04:55;;;;;;;0.43;0.43;;;;;;;24.25;51.14;101001.81;5030661;28;20386;-75
2023/09/24 07:07:21;;;;;;;0.73;0.50;;;;;;;24.47;51.24;100996.38;5027796;28;20396;-76
2023/09/24 07:09:48;;;;;;;0.28;0.28;;;;;;;24.65;51.20;100992.53;5027183;28;20490;-78
2023/09/24 07:12:14;;;;;;;0.30;0.30;;;;;;;24.66;50.28;100990.63;5030136;28;20476;-78
2023/09/24 07:14:43;;;;;;;0.52;0.43;;;;;;;24.59;50.32;100996.25;5030358;28;20394;-79
2023/09/24 07:17:08;;;;;;;0.40;0.40;;;;;;;24.74;49.75;100999.09;5031388;28;20904;-78
2023/09/24 07:19:34;;;;;;;0.20;0.20;;;;;;;24.38;49.92;100997.91;5031423;28;20390;-80
2023/09/24 07:22:00;;;;;;;0.20;0.20;;;;;;;24.35;49.74;100987.59;5031490;28;20468;-77
2023/09/24 07:24:26;;;;;;;1.73;1.07;;;;;;;24.51;49.74;100983.94;5029129;28;20440;-79
2023/09/24 07:26:56;;;;;;;0.30;0.30;;;;;;;24.81;49.63;100990.75;5029239;28;20406;-79
2023/09/24 07:29:22;;;;;;;0.60;0.47;;;;;;;24.88;49.07;100994.03;5028293;28;20455;-78
2023/09/24 07:31:48;;;;;;;2.80;0.57;;;;;;;24.72;49.34;100989.56;5029813;28;20470;-82
2023/09/24 07:34:14;;;;;;;0.30;0.30;;;;;;;24.99;49.31;100995.78;5030980;28;20406;-79
2023/09/24 07:36:40;;;;;;;0.20;0.20;;;;;;;25.04;48.59;100986.84;5012195;28;20398;-78
2023/09/24 07:39:06;;;;;;;0.20;0.20;;;;;;;24.84;48.92;100998.34;5030914;28;20911;-80
2023/09/24 07:41:32;;;;;;;0.30;0.20;;;;;;;24.86;49.02;101000.81;4991514;28;20398;-78
2023/09/24 07:43:58;;;;;;;0.60;0.40;;;;;;;25.04;48.74;100989.56;4975452;28;20523;-78
2023/09/24 07:46:25;;;;;;;0.30;0.30;;;;;;;24.83;48.85;100985.91;5007389;28;20498;-80
2023/09/24 07:48:50;;;;;;;0.32;0.32;;;;;;;24.99;48.93;100987.66;4991986;28;20752;-79
2023/09/24 07:51:16;;;;;;;0.60;0.60;;;;;;;25.26;48.83;100986.75;5008717;28;20392;-79
2023/09/24 07:53:46;;;;;;;0.20;0.20;;;;;;;25.23;48.26;100992.69;5008455;28;20391;-79
2023/09/24 07:56:13;;;;;;;0.55;0.52;;;;;;;25.32;48.45;100987.63;5008331;28;20400;-80
2023/09/24 07:58:39;;;;;;;0.40;0.32;;;;;;;25.32;48.36;100991.16;5008638;28;20396;-78
2023/09/24 08:01:09;;;;;;;0.63;0.63;;;;;;;25.47;48.40;100993.13;5008914;28;20579;-79
2023/09/24 08:03:36;;;;;;;0.65;0.43;;;;;;;25.44;48.38;101004.50;5008504;28;20791;-78
2023/09/24 08:06:02;;;;;;;0.50;0.50;;;;;;;25.50;48.47;100989.09;5008780;28;20502;-78
2023/09/24 08:08:34;;;;;;;0.75;0.60;;;;;;;25.42;48.25;100995.00;5008243;28;20724;-78
2023/09/24 08:10:59;;;;;;;0.20;0.20;;;;;;;25.42;48.57;100998.53;5008250;28;20427;-79
2023/09/24 08:13:25;;;;;;;0.40;0.40;;;;;;;25.64;48.41;100990.25;5027342;28;20390;-80
2023/09/24 08:15:51;;;;;;;0.20;0.20;;;;;;;25.80;48.06;100988.38;5029024;28;20406;-79
2023/09/24 08:18:20;;;;;;;0.40;0.30;;;;;;;25.82;48.13;100988.97;5045852;28;20904;-81
2023/09/24 08:20:46;;;;;;;0.60;0.30;;;;;;;25.90;47.88;100985.72;5030282;28;20439;-78
2023/09/24 08:23:15;;;;;;;0.57;0.50;;;;;;;25.98;48.16;100984.41;5028947;28;20386;-81
2023/09/24 08:25:41;;;;;;;0.20;0.20;;;;;;;26.04;47.64;100983.38;5028968;28;20425;-80
2023/09/24 08:28:08;;;;;;;0.40;0.35;;;;;;;26.19;47.42;100982.59;5030218;28;20461;-78
2023/09/24 08:30:34;;;;;;;0.38;0.30;;;;;;;26.01;47.84;100977.66;5012682;28;20406;-79
2023/09/24 08:33:00;;;;;;;0.20;0.20;;;;;;;26.15;47.82;100976.06;5030520;28;20385;-80
2023/09/24 08:35:26;;;;;;;0.30;0.30;;;;;;;26.16;47.69;100977.69;5044923;28;20419;-78
2023/09/24 08:37:52;;;;;;;0.40;0.40;;;;;;;26.18;47.72;100982.84;5012273;28;20398;-79
2023/09/24 08:40:18;;;;;;;0.63;0.55;;;;;;;26.33;47.33;100986.41;5029974;28;20370;-78
2023/09/24 08:42:48;;;;;;;0.20;0.20;;;;;;;26.38;47.42;100977.47;5030004;28;20485;-78
2023/09/24 08:45:18;;;;;;;0.40;0.37;;;;;;;26.53;47.47;100979.38;5030091;28;20406;-78
2023/09/24 08:47:45;;;;;;;0.30;0.30;;;;;;;26.51;47.13;100974.22;5045560;28;20474;-79
2023/09/24 08:50:14;;;;;;;0.52;0.47;;;;;;;26.78;47.26;100970.44;5030049;28;20379;-79
2023/09/24 08:52:42;;;;;;;0.20;0.20;;;;;;;27.01;46.87;100973.69;5045275;28;20426;-80
2023/09/24 08:55:09;;;;;;;0.80;0.60;;;;;;;27.12;46.80;100969.03;5028308;28;21059;-79
2023/09/24 08:57:39;;;;;;;0.30;0.30;;;;;;;27.14;46.70;100970.41;5028112;28;20782;-81
2023/09/24 09:00:11;;;;;;;0.25;0.25;;;;;;;27.37;46.39;100971.75;5029767;28;20416;-80
2023/09/24 09:02:37;;;;;;;0.50;0.50;;;;;;;27.46;45.94;100975.53;5028165;28;20386;-79
2023/09/24 09:05:23;;;;;;;0.30;0.30;;;;;;;27.25;46.36;100954.88;5027956;28;20409;-79
2023/09/24 09:08:03;;;;;;;1.20;0.40;;;;;;;27.22;46.15;100955.41;5028398;28;20421;-79
2023/09/24 09:10:30;;;;;;;0.70;0.70;;;;;;;27.42;46.35;100965.47;5028009;28;20390;-78
2023/09/24 09:13:04;;;;;;;0.30;0.30;;;;;;;27.42;46.24;100963.56;5029798;28;20390;-80
2023/09/24 09:15:29;;;;;;;0.60;0.60;;;;;;;27.34;46.04;100971.50;5044806;28;20395;-79
2023/09/24 09:17:55;;;;;;;0.32;0.32;;;;;;;27.36;46.58;100963.88;5028097;28;20389;-80
2023/09/24 09:20:39;;;;;;;0.30;0.30;;;;;;;27.30;46.78;100967.66;5029609;28;20389;-79
2023/09/24 09:23:04;;;;;;;0.38;0.38;;;;;;;27.40;46.67;100959.47;5029631;28;20436;-80
2023/09/24 09:25:30;;;;;;;0.95;0.93;;;;;;;27.39;46.59;100955.16;5027761;28;20413;-80
2023/09/24 09:27:56;;;;;;;0.50;0.50;;;;;;;27.57;46.64;100951.81;5028331;28;21112;-79
2023/09/24 09:30:22;;;;;;;0.43;0.43;;;;;;;27.61;46.03;100946.63;5028174;28;20378;-78
2023/09/24 09:32:48;;;;;;;0.50;0.50;;;;;;;27.51;46.64;100958.34;5027999;28;20901;-79
2023/09/24 09:35:15;;;;;;;0.40;0.35;;;;;;;27.64;46.52;100960.50;5044771;28;20417;-80
2023/09/24 09:37:43;;;;;;;0.40;0.40;;;;;;;27.74;46.09;100967.00;5030316;28;20387;-79
2023/09/24 09:40:10;;;;;;;0.43;0.43;;;;;;;27.50;46.25;100964.09;5027858;28;20417;-78
2023/09/24 09:42:37;;;;;;;0.20;0.20;;;;;;;27.45;46.34;100959.47;5029665;28;20378;-79
2023/09/24 09:45:12;;;;;;;1.00;0.82;;;;;;;27.43;46.38;100967.09;5028489;28;20976;-79
2023/09/24 09:48:05;;;;;;;0.30;0.30;;;;;;;27.38;46.14;100973.38;5029333;28;20761;-79
2023/09/24 09:50:44;;;;;;;0.30;0.30;;;;;;;27.50;45.96;100980.44;5023041;28;20408;-80
2023/09/24 09:53:15;;;;;;;0.55;0.55;;;;;;;27.53;45.94;100980.69;5029379;28;20390;-80
2023/09/24 09:55:42;;;;;;;1.55;0.35;;;;;;;27.81;45.50;100979.19;5029830;28;20386;-80
2023/09/24 09:58:10;;;;;;;0.35;0.35;;;;;;;27.95;45.25;100962.28;5029474;28;20413;-79
2023/09/24 10:00:36;;;;;;;0.30;0.30;;;;;;;27.99;45.41;100961.44;5028435;28;20489;-80
2023/09/24 10:03:03;;;;;;;0.47;0.45;;;;;;;28.11;45.15;100974.75;5029353;28;20390;-79
2023/09/24 10:05:31;;;;;;;0.40;0.40;;;;;;;28.13;45.35;100969.00;5027883;28;20414;-78
2023/09/24 10:07:57;;;;;;;0.20;0.20;;;;;;;28.10;45.14;100961.38;5029745;28;20456;-79
2023/09/24 10:10:34;;;;;;;0.30;0.30;;;;;;;28.17;45.44;100954.53;5032176;28;20386;-79
2023/09/24 10:13:04;;;;;;;0.20;0.20;;;;;;;28.18;45.20;100947.16;5032681;28;21260;-79
2023/09/24 10:15:34;;;;;;;0.20;0.20;;;;;;;28.22;45.07;100946.31;5032769;28;20436;-80
2023/09/24 10:18:12;;;;;;;0.10;0.10;;;;;;;28.19;45.34;100952.31;5031407;28;20906;-79
2023/09/24 10:20:49;;;;;;;0.25;0.25;;;;;;;28.18;45.29;100977.97;5032347;28;20389;-78
2023/09/24 10:23:31;;;;;;;0.20;0.20;;;;;;;28.17;45.62;100981.78;5032716;28;20374;-79
2023/09/24 10:25:59;;;;;;;0.40;0.38;;;;;;;28.23;45.50;100977.09;5032228;28;20504;-78
2023/09/24 10:28:48;;;;;;;0.82;0.80;;;;;;;28.30;45.26;100974.88;5032594;28;20505;-80
2023/09/24 10:31:21;;;;;;;0.20;0.20;;;;;;;28.28;45.29;100977.06;5047544;28;20433;-81
2023/09/24 10:33:59;;;;;;;0.80;0.80;;;;;;;28.28;45.56;100979.00;5031102;28;20781;-78
2023/09/24 10:36:32;;;;;;;0.20;0.20;;;;;;;28.27;45.46;100969.16;5030914;28;20394;-78
2023/09/24 10:39:04;;;;;;;0.45;0.40;;;;;;;28.29;45.29;100969.69;5032609;28;20444;-79
2023/09/24 10:41:32;;;;;;;0.40;0.40;;;;;;;28.33;45.27;100974.31;5031918;28;20378;-79
2023/09/24 10:44:28;;;;;;;0.20;0.20;;;;;;;28.40;45.11;100982.19;5030810;28;20467;-79
2023/09/24 10:46:53;;;;;;;0.30;0.30;;;;;;;28.31;45.25;100970.25;5030673;28;20756;-80
2023/09/24 10:49:26;;;;;;;0.50;0.50;;;;;;;28.29;45.11;100965.09;5030603;28;20963;-80
2023/09/24 10:52:01;;;;;;;0.40;0.40;;;;;;;28.25;45.08;100966.72;5031665;28;20424;-80
2023/09/24 10:54:27;;;;;;;0.87;0.60;;;;;;;28.09;45.36;100971.47;5031719;28;20382;-80
2023/09/24 10:56:53;;;;;;;0.10;0.10;;;;;;;27.93;45.47;100945.38;5031690;28;20780;-78
2023/09/24 10:59:34;;;;;;;0.20;0.20;;;;;;;28.03;45.60;100975.31;5030471;28;20382;-79
2023/09/24 11:02:26;;;;;;;0.80;0.80;;;;;;;28.06;45.31;100999.28;5031049;28;20458;-80
2023/09/24 11:05:00;;;;;;;0.20;0.20;;;;;;;28.04;45.70;100974.22;5027111;28;20426;-80
2023/09/24 11:07:25;;;;;;;0.30;0.30;;;;;;;27.80;45.73;100957.69;5030206;28;20402;-80
2023/09/24 11:09:51;;;;;;;0.30;0.30;;;;;;;27.96;45.56;100980.25;5031571;28;20773;-79
2023/09/24 11:12:16;;;;;;;0.90;0.80;;;;;;;28.01;45.86;100975.59;5046690;28;20469;-78
2023/09/24 11:14:53;;;;;;;0.20;0.20;;;;;;;28.01;46.18;100963.88;5031462;28;20389;-78
2023/09/24 11:17:19;;;;;;;0.95;0.93;;;;;;;28.03;46.20;100972.59;5031392;28;20773;-79
2023/09/24 11:19:48;;;;;;;0.60;0.60;;;;;;;28.00;46.05;100960.34;5031230;28;20386;-79
2023/09/24 11:22:25;;;;;;;0.38;0.32;;;;;;;27.85;46.38;100936.69;5029902;28;20395;-80
2023/09/24 11:25:08;;;;;;;0.50;0.50;;;;;;;27.80;46.18;100949.50;5013699;28;20464;-79
2023/09/24 11:27:36;;;;;;;0.40;0.40;;;;;;;27.90;46.39;100965.00;5030280;28;20430;-79
2023/09/24 11:30:03;;;;;;;0.30;0.30;;;;;;;27.88;46.19;100959.03;5031225;28;20444;-79
2023/09/24 11:32:29;;;;;;;0.33;0.33;;;;;;;27.82;46.15;100959.06;5030092;28;20422;-80